Time;durP1;ratioP1;P1;durP2;ratioP2;P2;SDS_P1;SDS_P2;PMS_P1;PMS_P2;Temp;Humidity;BMP_temperature;BMP_pressure;BME280_temperature;BME280_humidity;BME280_pressure;Samples;Min_cycle;Max_cycle;Signal;HPM_P1;HPM_P2
2022/10/07 03:02:57;;;;;;;16.30;3.70;;;10.00;99.90;;;;;;6309307;22;20350;-78
2022/10/07 03:05:24;;;;;;;15.73;3.83;;;10.00;99.90;;;;;;6280745;22;20038;-77
2022/10/07 03:07:55;;;;;;;12.95;3.80;;;10.00;99.90;;;;;;6256181;22;20042;-80
2022/10/07 03:10:21;;;;;;;20.20;4.60;;;10.00;99.90;;;;;;6281493;22;20088;-79
2022/10/07 03:12:47;;;;;;;13.70;4.13;;;10.00;99.90;;;;;;6281608;22;20396;-81
2022/10/07 03:15:13;;;;;;;14.48;4.50;;;10.00;99.90;;;;;;6256314;22;20019;-79
2022/10/07 03:17:39;;;;;;;16.02;4.25;;;9.90;99.90;;;;;;6281282;22;20054;-79
2022/10/07 03:20:06;;;;;;;17.65;3.92;;;10.00;99.90;;;;;;6281521;22;20086;-79
2022/10/07 03:22:32;;;;;;;19.00;3.97;;;9.90;99.90;;;;;;6281491;22;20015;-80
2022/10/07 03:24:58;;;;;;;15.38;4.00;;;9.90;99.90;;;;;;6281680;22;20037;-79
2022/10/07 03:27:24;;;;;;;13.43;5.00;;;9.90;99.90;;;;;;6255891;22;20012;-77
2022/10/07 03:29:50;;;;;;;20.52;4.13;;;9.90;99.90;;;;;;6281348;22;20014;-80
2022/10/07 03:32:16;;;;;;;11.40;3.78;;;9.80;99.90;;;;;;6281419;22;20340;-78
2022/10/07 03:34:41;;;;;;;16.27;4.40;;;9.80;99.90;;;;;;6308893;22;20064;-80
2022/10/07 03:37:07;;;;;;;12.30;3.90;;;9.70;99.90;;;;;;6308636;22;20310;-80
2022/10/07 03:39:33;;;;;;;15.27;4.15;;;9.60;99.90;;;;;;6281277;22;20046;-79
2022/10/07 03:41:59;;;;;;;12.90;4.72;;;9.60;99.90;;;;;;6281139;22;20034;-79
2022/10/07 03:44:25;;;;;;;21.65;4.88;;;9.50;99.90;;;;;;6308998;22;20032;-78
2022/10/07 03:46:51;;;;;;;22.73;5.07;;;9.50;99.90;;;;;;6281275;22;20050;-80
2022/10/07 03:49:18;;;;;;;15.85;4.53;;;9.50;99.90;;;;;;6308974;22;20077;-78
2022/10/07 03:51:44;;;;;;;16.23;4.93;;;9.40;99.90;;;;;;6308936;22;20019;-79
2022/10/07 03:54:09;;;;;;;18.25;4.75;;;9.40;99.90;;;;;;6281202;22;20068;-79
2022/10/07 03:56:35;;;;;;;19.15;4.82;;;9.40;99.90;;;;;;6281107;22;20011;-80
2022/10/07 03:59:01;;;;;;;19.75;4.97;;;9.30;99.90;;;;;;6308440;22;20018;-78
2022/10/07 04:01:30;;;;;;;13.30;4.85;;;9.20;99.90;;;;;;6255691;22;20007;-78
2022/10/07 04:03:57;;;;;;;18.05;4.97;;;9.20;99.90;;;;;;6308078;22;20022;-79
2022/10/07 04:06:22;;;;;;;17.85;5.28;;;9.20;99.90;;;;;;6282018;22;20014;-78
2022/10/07 04:08:52;;;;;;;16.80;4.85;;;9.20;99.90;;;;;;6308541;22;20015;-79
2022/10/07 04:11:19;;;;;;;15.35;4.85;;;9.20;99.90;;;;;;6281522;22;20030;-78
2022/10/07 04:13:44;;;;;;;23.88;4.82;;;9.20;99.90;;;;;;6280686;22;20023;-82
2022/10/07 04:16:11;;;;;;;15.20;4.50;;;9.20;99.90;;;;;;6280990;22;20076;-79
2022/10/07 04:18:40;;;;;;;18.75;5.55;;;9.20;99.90;;;;;;6281084;22;20015;-79
2022/10/07 04:21:06;;;;;;;23.60;5.30;;;9.30;99.90;;;;;;6280731;22;20011;-77
2022/10/07 04:23:35;;;;;;;15.35;5.22;;;9.20;99.90;;;;;;6308085;22;20003;-81
2022/10/07 04:26:05;;;;;;;14.32;5.05;;;9.30;99.90;;;;;;6280786;22;20011;-80
2022/10/07 04:28:30;;;;;;;19.48;5.35;;;9.30;99.90;;;;;;6280849;22;20011;-79
2022/10/07 04:30:56;;;;;;;23.25;6.00;;;9.40;99.90;;;;;;6280419;22;20076;-78
2022/10/07 04:33:23;;;;;;;20.77;5.50;;;9.40;99.90;;;;;;6280803;22;20011;-79
2022/10/07 04:35:49;;;;;;;23.98;5.60;;;9.40;99.90;;;;;;6281624;22;20070;-79
2022/10/07 04:38:17;;;;;;;20.35;5.80;;;9.40;99.90;;;;;;6280921;22;20019;-80
2022/10/07 04:40:48;;;;;;;19.35;6.38;;;9.50;99.90;;;;;;6280797;22;20011;-79
2022/10/07 04:43:19;;;;;;;18.05;5.53;;;9.50;99.90;;;;;;6255125;22;20038;-80
2022/10/07 04:45:53;;;;;;;23.77;6.15;;;9.50;99.90;;;;;;6254870;22;20015;-76
2022/10/07 04:48:21;;;;;;;19.83;5.47;;;9.50;99.90;;;;;;6281052;22;20011;-82
2022/10/07 04:50:48;;;;;;;22.20;6.35;;;9.50;99.90;;;;;;6280848;22;20444;-78
2022/10/07 04:53:15;;;;;;;19.15;6.35;;;9.50;99.90;;;;;;6281184;22;20026;-80
2022/10/07 04:55:45;;;;;;;20.70;6.68;;;9.60;99.90;;;;;;6281077;22;20447;-80
2022/10/07 04:58:11;;;;;;;19.63;6.43;;;9.60;99.90;;;;;;6281215;22;20332;-77
2022/10/07 05:00:48;;;;;;;22.10;6.38;;;9.60;99.90;;;;;;6280617;22;20015;-78
2022/10/07 05:03:15;;;;;;;23.38;7.05;;;9.60;99.90;;;;;;6280737;22;20015;-79
2022/10/07 05:05:43;;;;;;;23.80;6.43;;;9.70;99.90;;;;;;6280802;22;20458;-77
2022/10/07 05:08:09;;;;;;;21.95;5.93;;;9.60;99.90;;;;;;6280569;22;20021;-80
2022/10/07 05:10:39;;;;;;;24.77;5.72;;;9.70;99.90;;;;;;6282720;22;20294;-80
2022/10/07 05:13:06;;;;;;;26.58;6.85;;;9.60;99.90;;;;;;6282991;22;20015;-80
2022/10/07 05:15:35;;;;;;;17.05;5.57;;;9.60;99.90;;;;;;6310407;22;20357;-79
2022/10/07 05:18:00;;;;;;;18.60;5.30;;;9.60;99.90;;;;;;6282867;22;20014;-80
2022/10/07 05:20:26;;;;;;;18.50;4.95;;;9.50;99.90;;;;;;6282738;22;20015;-79
2022/10/07 05:22:52;;;;;;;20.02;5.70;;;9.60;99.90;;;;;;6257641;22;20019;-81
2022/10/07 05:25:18;;;;;;;17.80;5.40;;;9.50;99.90;;;;;;6282626;22;20014;-82
2022/10/07 05:27:44;;;;;;;25.80;5.30;;;9.50;99.90;;;;;;6281537;22;20022;-82
2022/10/07 05:30:10;;;;;;;21.83;6.13;;;9.50;99.90;;;;;;6281870;22;20019;-78
2022/10/07 05:32:36;;;;;;;18.83;4.65;;;9.50;99.90;;;;;;6281310;22;20012;-81
2022/10/07 05:35:02;;;;;;;15.35;4.40;;;9.50;99.90;;;;;;6281644;22;20314;-81
2022/10/07 05:37:28;;;;;;;23.20;5.30;;;9.50;99.90;;;;;;6281317;22;20452;-83
2022/10/07 05:39:54;;;;;;;16.88;4.75;;;9.50;99.90;;;;;;6281420;22;20086;-81
2022/10/07 05:42:19;;;;;;;20.35;5.28;;;9.50;99.90;;;;;;6281612;22;20043;-80
2022/10/07 05:44:45;;;;;;;16.88;4.32;;;9.50;99.90;;;;;;6309239;22;20015;-82
2022/10/07 05:47:11;;;;;;;17.60;4.80;;;9.50;99.90;;;;;;6281462;22;20297;-83
2022/10/07 05:49:36;;;;;;;15.18;5.15;;;9.50;99.90;;;;;;6255531;22;20045;-78
2022/10/07 05:52:03;;;;;;;20.98;5.03;;;9.50;99.90;;;;;;6281093;22;20082;-81
2022/10/07 05:54:29;;;;;;;19.15;5.18;;;9.50;99.90;;;;;;6255320;22;20099;-84
2022/10/07 05:56:54;;;;;;;15.10;5.20;;;9.50;99.90;;;;;;6255689;22;20039;-84
2022/10/07 05:59:21;;;;;;;15.55;5.57;;;9.50;99.90;;;;;;6255592;22;20023;-80
2022/10/07 06:01:46;;;;;;;23.95;5.88;;;9.50;99.90;;;;;;6255457;22;20056;-82
2022/10/07 06:04:12;;;;;;;19.33;4.85;;;9.50;99.90;;;;;;6281257;22;20434;-79
2022/10/07 06:06:38;;;;;;;15.75;5.05;;;9.50;99.90;;;;;;6280679;22;20007;-80
2022/10/07 06:14:32;;;;;;;14.20;5.50;;;9.60;99.90;;;;;;6280615;22;20015;-82
2022/10/07 06:16:58;;;;;;;14.80;4.93;;;9.70;99.90;;;;;;6308736;22;20389;-83
2022/10/07 06:19:24;;;;;;;18.17;5.13;;;9.70;99.90;;;;;;6281464;22;20038;-79
2022/10/07 06:21:50;;;;;;;18.75;5.82;;;9.70;99.90;;;;;;6281241;22;20049;-80
2022/10/07 06:24:16;;;;;;;21.80;5.32;;;9.70;99.90;;;;;;6308533;22;20068;-78
2022/10/07 06:26:41;;;;;;;15.68;4.45;;;9.70;99.90;;;;;;6280558;22;20007;-76
2022/10/07 06:29:07;;;;;;;17.23;4.32;;;9.70;99.90;;;;;;6308696;22;20011;-78
2022/10/07 06:31:33;;;;;;;11.40;3.38;;;9.70;99.90;;;;;;6280972;22;20452;-77
2022/10/07 06:33:59;;;;;;;11.52;3.80;;;9.80;99.90;;;;;;6255006;22;20025;-82
2022/10/07 06:36:25;;;;;;;11.10;3.88;;;9.80;99.90;;;;;;6309091;22;20437;-81
2022/10/07 06:38:54;;;;;;;16.65;4.18;;;9.80;99.90;;;;;;6308675;22;20464;-76
2022/10/07 06:41:21;;;;;;;13.85;3.50;;;9.80;99.90;;;;;;6282041;22;20444;-80
2022/10/07 06:43:47;;;;;;;17.90;3.97;;;9.80;99.90;;;;;;6282166;22;20015;-82
2022/10/07 06:46:17;;;;;;;13.93;3.83;;;9.80;99.90;;;;;;6310308;22;20030;-79
2022/10/07 06:48:44;;;;;;;11.70;3.17;;;9.90;99.90;;;;;;6309689;22;20090;-79
2022/10/07 06:51:18;;;;;;;11.60;3.42;;;9.90;99.90;;;;;;6282125;22;20019;-80
2022/10/07 06:53:45;;;;;;;14.65;3.83;;;10.00;99.90;;;;;;6282075;22;20017;-77
2022/10/07 06:56:13;;;;;;;11.63;3.17;;;10.00;99.90;;;;;;6309037;22;20022;-81
2022/10/07 06:58:38;;;;;;;10.77;3.13;;;10.00;99.90;;;;;;6282417;22;20026;-80
2022/10/07 07:01:04;;;;;;;14.48;3.25;;;10.10;99.90;;;;;;6309270;22;20003;-83
2022/10/07 07:03:30;;;;;;;11.20;3.30;;;10.10;99.90;;;;;;6256393;22;20030;-80
2022/10/07 07:05:57;;;;;;;14.27;3.22;;;10.10;99.90;;;;;;6281712;22;20440;-79
2022/10/07 07:08:30;;;;;;;18.75;3.20;;;10.20;99.90;;;;;;6281828;22;20011;-81
2022/10/07 07:11:34;;;;;;;13.52;2.80;;;10.20;99.90;;;;;;6281582;22;20452;-83
2022/10/07 07:13:50;;;;;;;11.88;2.88;;;10.20;99.90;;;;;;6281260;22;20022;-81
2022/10/07 07:16:16;;;;;;;12.68;3.08;;;10.30;99.90;;;;;;6281838;22;20392;-78
2022/10/07 07:18:42;;;;;;;10.02;3.05;;;10.40;99.90;;;;;;6281246;22;20019;-79
2022/10/07 07:21:08;;;;;;;12.05;3.08;;;10.40;99.90;;;;;;6255623;22;20033;-78
2022/10/07 07:23:33;;;;;;;14.80;2.85;;;10.60;99.90;;;;;;6308772;22;20343;-77
2022/10/07 07:25:59;;;;;;;14.63;2.53;;;10.60;99.90;;;;;;6255863;22;20022;-80
2022/10/07 07:28:25;;;;;;;16.15;3.13;;;10.80;99.90;;;;;;6308558;22;20060;-78
2022/10/07 07:30:50;;;;;;;13.60;2.42;;;10.90;99.90;;;;;;6281505;22;20020;-77
2022/10/07 07:33:16;;;;;;;13.32;2.95;;;11.00;99.90;;;;;;6280298;22;20344;-84
2022/10/07 07:35:42;;;;;;;13.48;3.08;;;11.10;99.90;;;;;;6281780;22;20019;-79
2022/10/07 07:38:08;;;;;;;17.85;3.45;;;11.20;99.90;;;;;;6256085;22;20022;-80
2022/10/07 07:40:37;;;;;;;12.85;2.60;;;11.30;99.90;;;;;;6280904;22;20015;-77
2022/10/07 07:43:04;;;;;;;13.90;2.65;;;11.30;99.90;;;;;;6255758;22;20340;-82
2022/10/07 07:45:31;;;;;;;9.38;2.30;;;11.30;99.90;;;;;;6308816;22;20037;-80
2022/10/07 07:47:58;;;;;;;14.07;2.10;;;11.30;99.90;;;;;;6281050;22;20015;-80
2022/10/07 07:50:26;;;;;;;12.38;2.65;;;11.30;99.90;;;;;;6255375;22;20041;-76
2022/10/07 07:52:55;;;;;;;13.80;2.72;;;11.40;99.90;;;;;;6281046;22;20509;-78
2022/10/07 07:55:22;;;;;;;9.27;2.78;;;11.40;99.90;;;;;;6280882;22;20015;-80
2022/10/07 07:57:48;;;;;;;12.10;2.78;;;11.50;99.90;;;;;;6308207;22;20090;-79
2022/10/07 08:00:15;;;;;;;12.63;2.53;;;11.50;99.90;;;;;;6280862;22;20010;-80
2022/10/07 08:02:41;;;;;;;17.40;2.60;;;11.50;99.90;;;;;;6280888;22;20007;-79
2022/10/07 08:05:07;;;;;;;10.35;2.30;;;11.60;99.90;;;;;;6280920;22;20471;-77
2022/10/07 08:07:34;;;;;;;17.45;2.75;;;11.70;99.90;;;;;;6281547;22;20370;-78
2022/10/07 08:10:00;;;;;;;10.50;2.42;;;11.80;99.90;;;;;;6280940;22;20060;-76
2022/10/07 08:12:25;;;;;;;8.20;2.05;;;11.80;99.90;;;;;;6280915;22;20039;-78
2022/10/07 08:14:51;;;;;;;10.70;2.10;;;11.90;99.90;;;;;;6308871;22;20038;-80
2022/10/07 08:17:16;;;;;;;10.60;2.42;;;12.00;99.90;;;;;;6280605;22;20007;-78
2022/10/07 08:19:42;;;;;;;20.00;2.42;;;12.10;99.90;;;;;;6308324;22;20045;-79
2022/10/07 08:22:08;;;;;;;9.02;2.13;;;12.20;99.90;;;;;;6280945;22;20011;-76
2022/10/07 08:24:34;;;;;;;10.55;2.08;;;12.40;99.90;;;;;;6280970;22;20022;-81
2022/10/07 08:26:59;;;;;;;11.80;2.67;;;12.50;99.90;;;;;;6255413;22;20011;-77
2022/10/07 08:29:25;;;;;;;21.73;3.25;;;12.60;99.90;;;;;;6255304;22;20022;-79
2022/10/07 08:31:51;;;;;;;14.00;2.67;;;12.70;99.90;;;;;;6280794;22;20026;-81
2022/10/07 08:34:17;;;;;;;14.35;2.40;;;12.80;99.90;;;;;;6281207;22;20081;-77
2022/10/07 08:36:46;;;;;;;10.73;3.08;;;12.80;99.90;;;;;;6280969;22;20325;-77
2022/10/07 08:39:12;;;;;;;13.43;2.40;;;12.80;99.90;;;;;;6255098;22;20378;-77
2022/10/07 08:41:51;;;;;;;12.82;2.50;;;12.90;99.90;;;;;;6280812;22;20322;-77
2022/10/07 08:44:38;;;;;;;;;;;;;;;;;;;;;
2022/10/07 08:47:25;;;;;;;17.00;2.83;;;12.90;99.90;;;;;;6280294;22;20011;-77
2022/10/07 08:50:18;;;;;;;8.07;2.20;;;12.90;99.90;;;;;;6254856;22;20039;-79
2022/10/07 08:52:50;;;;;;;14.65;2.08;;;12.90;99.90;;;;;;6308062;22;20065;-79
2022/10/07 08:55:26;;;;;;;12.75;2.55;;;13.00;99.90;;;;;;6308587;22;20374;-80
2022/10/07 08:58:30;;;;;;;10.93;2.25;;;13.10;99.90;;;;;;6280767;22;20336;-78
2022/10/07 09:01:29;;;;;;;17.70;2.85;;;13.20;99.90;;;;;;6280502;22;20018;-81
2022/10/07 09:04:07;;;;;;;8.25;2.35;;;13.40;99.90;;;;;;6280517;22;20016;-76
2022/10/07 09:06:51;;;;;;;9.95;2.33;;;13.60;99.90;;;;;;6280430;22;20077;-79
2022/10/07 09:09:52;;;;;;;14.27;2.35;;;13.70;99.90;;;;;;6280809;22;20094;-76
2022/10/07 09:12:48;;;;;;;9.65;2.22;;;13.80;99.90;;;;;;6308711;22;20007;-79
2022/10/07 09:15:32;;;;;;;13.10;2.53;;;14.00;99.90;;;;;;6255300;22;20011;-78
2022/10/07 09:18:04;;;;;;;12.50;2.40;;;14.10;99.90;;;;;;6280567;22;20047;-80
2022/10/07 09:20:41;;;;;;;13.15;2.53;;;14.20;99.90;;;;;;6280224;22;20011;-77
2022/10/07 09:23:14;;;;;;;13.10;2.50;;;14.10;99.90;;;;;;6280637;22;20011;-81
2022/10/07 09:25:41;;;;;;;12.23;2.33;;;14.20;99.90;;;;;;6280690;22;20073;-78
2022/10/07 09:28:13;;;;;;;11.05;2.22;;;14.30;99.90;;;;;;6255269;22;20011;-77
2022/10/07 09:30:38;;;;;;;11.20;1.85;;;14.20;99.90;;;;;;6280363;22;20022;-77
2022/10/07 09:33:17;;;;;;;12.65;1.90;;;14.20;99.90;;;;;;6309316;22;20095;-77
2022/10/07 09:35:53;;;;;;;9.82;1.83;;;14.20;99.90;;;;;;6280427;22;20015;-80
2022/10/07 09:38:49;;;;;;;12.77;2.63;;;14.10;99.90;;;;;;6280231;22;20015;-79
2022/10/07 09:41:34;;;;;;;11.23;2.45;;;14.10;99.90;;;;;;6254846;22;20017;-77
2022/10/07 09:44:21;;;;;;;16.30;2.67;;;14.10;99.90;;;;;;6279972;22;20008;-76
2022/10/07 09:46:58;;;;;;;11.95;1.88;;;14.10;99.90;;;;;;6280288;22;20018;-78
2022/10/07 09:49:26;;;;;;;9.25;2.22;;;14.20;99.90;;;;;;6280056;22;20011;-77
2022/10/07 09:52:11;;;;;;;8.00;1.88;;;14.20;99.90;;;;;;6280307;22;20090;-80
2022/10/07 09:54:37;;;;;;;12.97;1.60;;;14.30;99.90;;;;;;6280508;22;20018;-77
2022/10/07 09:57:04;;;;;;;12.52;1.80;;;14.30;99.90;;;;;;6309008;22;20341;-77
2022/10/07 09:59:35;;;;;;;15.60;2.13;;;14.30;99.90;;;;;;6282391;22;20011;-76
2022/10/07 10:02:13;;;;;;;11.45;2.03;;;14.40;99.90;;;;;;6281623;22;20039;-76
2022/10/07 10:04:56;;;;;;;10.32;2.72;;;14.40;99.90;;;;;;6282004;22;20011;-81
2022/10/07 10:07:35;;;;;;;10.95;1.45;;;14.40;99.90;;;;;;6309141;22;20033;-83
2022/10/07 10:10:02;;;;;;;15.52;2.33;;;14.40;99.90;;;;;;6309803;22;20062;-79
2022/10/07 10:12:33;;;;;;;9.93;1.65;;;14.40;99.90;;;;;;6281656;22;20007;-79
2022/10/07 10:15:00;;;;;;;14.10;2.08;;;14.40;99.90;;;;;;6282264;22;20333;-76
2022/10/07 10:17:38;;;;;;;9.23;1.80;;;14.40;99.90;;;;;;6281914;22;20011;-80
2022/10/07 10:20:22;;;;;;;14.20;1.58;;;14.50;99.90;;;;;;6281838;22;20011;-81
2022/10/07 10:22:48;;;;;;;13.57;1.90;;;14.60;99.90;;;;;;6309820;22;20038;-77
2022/10/07 10:28:46;;;;;;;9.93;2.08;;;14.60;99.90;;;;;;6282207;22;20365;-79
2022/10/07 10:31:55;;;;;;;15.45;2.15;;;14.60;99.90;;;;;;6281144;22;20314;-80
2022/10/07 10:34:59;;;;;;;13.10;2.13;;;14.70;99.90;;;;;;6225972;22;20053;-78
2022/10/07 10:37:39;;;;;;;7.70;1.95;;;14.80;99.90;;;;;;6282431;22;20011;-79
2022/10/07 10:40:24;;;;;;;8.20;1.75;;;14.90;99.90;;;;;;6281820;22;20013;-80
2022/10/07 10:43:23;;;;;;;13.70;1.70;;;15.00;99.90;;;;;;6281877;22;20014;-77
2022/10/07 10:45:57;;;;;;;11.52;2.13;;;15.10;99.90;;;;;;6309338;22;20083;-80
2022/10/07 10:48:34;;;;;;;9.15;1.83;;;15.20;99.90;;;;;;6281651;22;20494;-78
2022/10/07 10:51:20;;;;;;;13.82;1.63;;;15.20;99.90;;;;;;6281637;22;20097;-76
2022/10/07 10:54:05;;;;;;;7.47;1.80;;;15.20;99.90;;;;;;6309600;22;20054;-78
2022/10/07 10:56:58;;;;;;;9.57;1.77;;;15.30;99.90;;;;;;6282164;22;20341;-80
2022/10/07 10:59:41;;;;;;;7.70;1.50;;;15.40;99.90;;;;;;6281362;22;20072;-78
2022/10/07 11:02:12;;;;;;;5.75;1.08;;;15.60;99.90;;;;;;6282191;22;20049;-80
2022/10/07 11:04:49;;;;;;;11.18;1.98;;;15.80;99.90;;;;;;6256297;22;20508;-80
2022/10/07 11:07:26;;;;;;;8.20;1.65;;;16.00;99.90;;;;;;6281416;22;20329;-80
2022/10/07 11:09:58;;;;;;;11.98;1.52;;;16.10;99.90;;;;;;6309527;22;20018;-80
2022/10/07 11:12:32;;;;;;;10.93;1.80;;;16.30;99.90;;;;;;6281628;22;20064;-79
2022/10/07 11:15:03;;;;;;;12.40;2.30;;;16.50;99.90;;;;;;6281385;22;20040;-77
2022/10/07 11:17:32;;;;;;;7.20;1.65;;;16.50;99.90;;;;;;6281465;22;20464;-74
2022/10/07 11:20:31;;;;;;;11.10;1.67;;;16.60;99.90;;;;;;6309003;22;20325;-80
2022/10/07 11:23:02;;;;;;;9.10;2.03;;;16.70;99.90;;;;;;6281384;22;20016;-80
2022/10/07 11:25:31;;;;;;;8.15;1.55;;;16.90;99.90;;;;;;6281901;22;20030;-79
2022/10/07 11:28:14;;;;;;;13.68;1.60;;;17.00;99.90;;;;;;6308673;22;20508;-78
2022/10/07 11:31:01;;;;;;;10.32;1.65;;;17.00;99.90;;;;;;6281891;22;20011;-81
2022/10/07 11:33:37;;;;;;;7.60;1.70;;;17.10;99.90;;;;;;6310053;22;20050;-80
2022/10/07 11:36:28;;;;;;;15.68;1.42;;;17.00;99.90;;;;;;6309378;22;20019;-78
2022/10/07 11:38:54;;;;;;;12.30;2.08;;;16.90;99.90;;;;;;6281259;22;20026;-79
2022/10/07 11:41:28;;;;;;;11.13;1.55;;;16.70;99.90;;;;;;6281183;22;20086;-79
2022/10/07 11:43:57;;;;;;;8.15;1.55;;;16.50;99.90;;;;;;6282399;22;20015;-81
2022/10/07 11:46:25;;;;;;;12.55;1.60;;;16.30;99.90;;;;;;6280986;22;20012;-79
2022/10/07 11:48:58;;;;;;;4.78;1.35;;;16.30;99.90;;;;;;6281664;22;20015;-74
2022/10/07 11:51:28;;;;;;;8.18;1.50;;;16.20;99.90;;;;;;6281220;22;20445;-78
2022/10/07 11:53:56;;;;;;;12.30;1.75;;;16.10;99.90;;;;;;6281860;22;20457;-85
2022/10/07 11:56:27;;;;;;;8.43;1.83;;;16.00;99.90;;;;;;6281553;22;20011;-77
2022/10/07 11:59:01;;;;;;;13.55;1.80;;;15.90;99.90;;;;;;6281639;22;20027;-80
2022/10/07 12:01:27;;;;;;;12.85;1.77;;;16.00;99.90;;;;;;6256027;22;20011;-84
2022/10/07 12:04:28;;;;;;;5.85;1.38;;;15.90;99.90;;;;;;6281306;22;20022;-79
2022/10/07 12:07:31;;;;;;;12.93;1.67;;;15.90;99.90;;;;;;6159281;23;20375;-80
2022/10/07 12:10:02;;;;;;;9.18;1.55;;;15.90;99.90;;;;;;6281140;22;20008;-85
2022/10/07 12:12:43;;;;;;;8.65;1.95;;;15.90;99.90;;;;;;6281198;22;20011;-86
2022/10/07 12:15:32;;;;;;;13.52;1.90;;;15.90;99.90;;;;;;6281184;22;20086;-84
2022/10/07 12:18:04;;;;;;;10.45;1.40;;;15.90;99.90;;;;;;6308573;22;20116;-80
2022/10/07 12:20:43;;;;;;;8.23;1.60;;;15.90;99.90;;;;;;6309404;22;20082;-77
2022/10/07 12:23:21;;;;;;;11.00;1.52;;;15.90;99.90;;;;;;6280790;22;20064;-80
2022/10/07 12:25:52;;;;;;;6.80;1.67;;;16.00;99.90;;;;;;6281002;22;20550;-78
2022/10/07 12:28:28;;;;;;;6.43;1.65;;;16.00;99.90;;;;;;6281109;22;20094;-83
2022/10/07 12:31:03;;;;;;;11.82;1.83;;;16.00;99.90;;;;;;6255383;22;20025;-84
2022/10/07 12:33:42;;;;;;;14.48;1.60;;;16.00;99.90;;;;;;6280999;22;20432;-79
2022/10/07 12:36:22;;;;;;;7.43;1.45;;;16.00;99.90;;;;;;6280729;22;20375;-79
2022/10/07 12:39:00;;;;;;;12.18;1.38;;;16.00;99.90;;;;;;6308087;22;20020;-81
2022/10/07 12:41:38;;;;;;;7.38;1.40;;;16.00;99.90;;;;;;6255212;22;20090;-78
2022/10/07 12:44:07;;;;;;;7.43;1.23;;;16.00;99.90;;;;;;6255664;22;20015;-81
2022/10/07 12:46:56;;;;;;;16.73;1.98;;;16.00;99.90;;;;;;6280860;22;20011;-78
2022/10/07 12:49:30;;;;;;;9.98;1.70;;;16.10;99.90;;;;;;6280920;22;20341;-82
2022/10/07 12:52:03;;;;;;;13.30;1.40;;;16.20;99.90;;;;;;6308550;22;20069;-79
2022/10/07 12:54:51;;;;;;;8.30;1.77;;;16.30;99.90;;;;;;6280735;22;20068;-79
2022/10/07 12:57:35;;;;;;;11.23;1.30;;;16.40;99.90;;;;;;6308478;22;20022;-79
2022/10/07 13:00:06;;;;;;;12.13;2.03;;;16.50;99.90;;;;;;6281044;22;20015;-79
2022/10/07 13:02:41;;;;;;;10.65;2.42;;;16.50;99.90;;;;;;6280820;22;20083;-79
2022/10/07 13:05:28;;;;;;;10.40;1.55;;;16.40;99.90;;;;;;6280706;22;20015;-79
2022/10/07 13:07:56;;;;;;;13.20;1.30;;;16.40;99.90;;;;;;6255143;22;20034;-81
2022/10/07 13:10:43;;;;;;;6.32;1.60;;;16.40;99.90;;;;;;6308110;22;20053;-80
2022/10/07 13:13:47;;;;;;;4.72;1.50;;;16.40;99.90;;;;;;6281033;22;20030;-78
2022/10/07 13:16:26;;;;;;;10.30;1.67;;;16.40;99.90;;;;;;6281518;22;20054;-77
2022/10/07 13:18:59;;;;;;;18.08;2.13;;;16.50;99.90;;;;;;6281025;22;20011;-79
2022/10/07 13:21:57;;;;;;;9.15;1.65;;;16.60;99.90;;;;;;6280688;22;20504;-78
2022/10/07 13:24:25;;;;;;;4.28;1.38;;;16.80;99.90;;;;;;6272171;22;20018;-76
2022/10/07 13:26:51;;;;;;;9.32;2.75;;;16.90;99.90;;;;;;6281279;22;20007;-79
2022/10/07 13:29:31;;;;;;;7.40;1.92;;;16.90;99.90;;;;;;6255386;22;20100;-80
2022/10/07 13:32:05;;;;;;;6.00;1.80;;;17.00;99.90;;;;;;6256358;22;20065;-84
2022/10/07 13:34:31;;;;;;;11.93;1.95;;;17.00;99.90;;;;;;6283227;22;20018;-77
2022/10/07 13:36:56;;;;;;;5.45;1.40;;;17.10;99.90;;;;;;6310168;22;20010;-79
2022/10/07 13:39:23;;;;;;;8.30;2.05;;;17.10;99.90;;;;;;6283031;22;20019;-77
2022/10/07 13:41:54;;;;;;;9.18;1.70;;;17.20;99.90;;;;;;6283129;22;20011;-78
2022/10/07 13:44:22;;;;;;;6.53;1.30;;;17.30;99.90;;;;;;6282661;22;20015;-77
2022/10/07 13:47:01;;;;;;;8.50;1.80;;;17.40;99.90;;;;;;6310083;22;20084;-78
2022/10/07 13:49:32;;;;;;;7.63;1.20;;;17.30;99.90;;;;;;6282961;22;20436;-80
2022/10/07 13:52:01;;;;;;;5.55;1.20;;;17.20;99.90;;;;;;6256863;22;20015;-74
2022/10/07 13:54:29;;;;;;;7.00;1.50;;;17.10;99.90;;;;;;6309806;22;20011;-79
2022/10/07 13:57:01;;;;;;;8.13;1.52;;;17.10;99.90;;;;;;6283215;22;20082;-81
2022/10/07 13:59:27;;;;;;;9.98;1.73;;;17.20;99.90;;;;;;6256961;22;20019;-82
2022/10/07 14:01:56;;;;;;;7.93;1.40;;;17.20;99.90;;;;;;6309591;22;20025;-78
2022/10/07 14:04:27;;;;;;;9.40;1.45;;;17.20;99.90;;;;;;6309977;22;20031;-84
2022/10/07 14:06:59;;;;;;;5.75;1.05;;;17.20;99.90;;;;;;6281743;22;20137;-81
2022/10/07 14:09:30;;;;;;;9.30;1.50;;;17.10;99.90;;;;;;6282358;22;20015;-77
2022/10/07 14:12:06;;;;;;;9.55;1.27;;;17.00;99.90;;;;;;6282113;22;20355;-79
2022/10/07 14:14:39;;;;;;;14.43;2.95;;;16.90;99.90;;;;;;6283175;22;20026;-80
2022/10/07 14:17:14;;;;;;;7.13;1.35;;;16.80;99.90;;;;;;6283818;22;20439;-79
2022/10/07 14:19:40;;;;;;;7.38;1.70;;;16.80;99.90;;;;;;6283354;22;20019;-83
2022/10/07 14:22:17;;;;;;;18.20;2.72;;;16.70;99.90;;;;;;6282325;22;20045;-83
2022/10/07 14:25:01;;;;;;;9.88;1.92;;;16.60;99.90;;;;;;6284079;22;20011;-78
2022/10/07 14:27:48;;;;;;;9.25;1.58;;;16.50;99.90;;;;;;6256577;22;20340;-84
2022/10/07 14:36:23;;;;;;;12.10;1.70;;;16.40;99.90;;;;;;6309545;22;20044;-77
2022/10/07 14:38:50;;;;;;;9.40;1.80;;;16.40;99.90;;;;;;6282737;22;20082;-78
2022/10/07 14:41:19;;;;;;;4.60;1.27;;;16.30;99.90;;;;;;6282118;22;20008;-78
2022/10/07 14:43:48;;;;;;;5.03;1.23;;;16.30;99.90;;;;;;6281505;22;20011;-85
2022/10/07 14:46:19;;;;;;;4.53;1.13;;;16.30;99.90;;;;;;6282378;22;20069;-80
2022/10/07 14:48:45;;;;;;;8.15;1.60;;;16.20;99.90;;;;;;6281698;22;20015;-80
2022/10/07 14:51:13;;;;;;;6.05;1.27;;;16.20;99.90;;;;;;6309249;22;20011;-82
2022/10/07 14:53:40;;;;;;;9.80;1.58;;;16.20;99.90;;;;;;6309418;22;20007;-79
2022/10/07 14:56:12;;;;;;;10.77;2.13;;;16.20;99.90;;;;;;6282685;22;20317;-79
2022/10/07 14:58:37;;;;;;;7.10;1.60;;;16.20;99.90;;;;;;6309781;22;20387;-80
2022/10/07 15:01:03;;;;;;;7.00;1.58;;;16.10;99.90;;;;;;6282342;22;20011;-78
2022/10/07 15:03:29;;;;;;;6.25;1.25;;;16.10;99.90;;;;;;6282599;22;20011;-81
2022/10/07 15:05:56;;;;;;;6.45;1.42;;;16.20;99.90;;;;;;6282603;22;20054;-83
2022/10/07 15:08:22;;;;;;;5.18;1.40;;;16.10;99.90;;;;;;6309451;22;20498;-77
2022/10/07 15:10:48;;;;;;;10.70;1.60;;;16.10;99.90;;;;;;6282650;22;20468;-78
2022/10/07 15:13:13;;;;;;;5.40;1.52;;;16.00;99.90;;;;;;6257021;22;20015;-82
2022/10/07 15:15:45;;;;;;;6.68;1.30;;;16.00;99.90;;;;;;6257663;22;20011;-81
2022/10/07 15:18:10;;;;;;;5.00;1.15;;;16.00;99.90;;;;;;6282170;22;20016;-78
2022/10/07 15:20:39;;;;;;;5.75;1.40;;;16.00;99.90;;;;;;6282322;22;20007;-82
2022/10/07 15:23:06;;;;;;;6.70;1.13;;;16.00;99.90;;;;;;6309480;22;20007;-80
2022/10/07 15:25:33;;;;;;;6.22;1.30;;;15.90;99.90;;;;;;6281688;22;20007;-77
2022/10/07 15:27:59;;;;;;;6.78;1.27;;;15.90;99.90;;;;;;6282129;22;20094;-82
2022/10/07 15:30:27;;;;;;;8.13;1.50;;;15.90;99.90;;;;;;6282515;22;20448;-80
2022/10/07 15:32:57;;;;;;;13.43;1.60;;;15.90;99.90;;;;;;6257375;22;20376;-79
2022/10/07 15:35:25;;;;;;;9.75;1.58;;;15.90;99.90;;;;;;6310453;22;20015;-79
2022/10/07 15:37:51;;;;;;;8.70;1.40;;;15.90;99.90;;;;;;6282397;22;20379;-81
2022/10/07 15:40:18;;;;;;;6.85;1.27;;;15.90;99.90;;;;;;6309439;22;20333;-75
2022/10/07 15:42:43;;;;;;;8.25;1.23;;;15.90;99.90;;;;;;6309652;22;20015;-78
2022/10/07 15:45:10;;;;;;;7.53;1.30;;;15.90;99.90;;;;;;6256478;22;20015;-80
2022/10/07 15:47:37;;;;;;;9.23;1.42;;;15.90;99.90;;;;;;6256770;22;20015;-78
2022/10/07 15:50:04;;;;;;;4.03;1.10;;;15.80;99.90;;;;;;6281866;22;20472;-82
2022/10/07 15:52:30;;;;;;;7.30;1.45;;;15.80;99.90;;;;;;6281536;22;20018;-81
2022/10/07 15:54:56;;;;;;;6.15;1.05;;;15.80;99.90;;;;;;6309089;22;20011;-78
2022/10/07 15:57:23;;;;;;;5.97;1.27;;;15.80;99.90;;;;;;6282192;22;20007;-82
2022/10/07 15:59:49;;;;;;;8.82;1.85;;;15.80;99.90;;;;;;6256252;22;20566;-81
2022/10/07 16:02:19;;;;;;;9.27;1.42;;;15.70;99.90;;;;;;6309406;22;20084;-79
2022/10/07 16:04:46;;;;;;;10.63;2.05;;;15.70;99.90;;;;;;6281969;22;20446;-80
2022/10/07 16:07:12;;;;;;;8.65;1.50;;;15.60;99.90;;;;;;6309506;22;20062;-76
2022/10/07 16:09:38;;;;;;;5.45;0.98;;;15.60;99.90;;;;;;6309244;22;20022;-81
2022/10/07 16:12:03;;;;;;;7.65;1.65;;;15.60;99.90;;;;;;6281687;22;20019;-78
2022/10/07 16:14:30;;;;;;;6.35;1.10;;;15.50;99.90;;;;;;6281314;22;20011;-80
2022/10/07 16:16:56;;;;;;;7.40;1.70;;;15.50;99.90;;;;;;6281784;22;20015;-81
2022/10/07 16:19:21;;;;;;;8.05;1.75;;;15.50;99.90;;;;;;6309507;22;20017;-82
2022/10/07 16:21:47;;;;;;;6.10;1.23;;;15.50;99.90;;;;;;6309414;22;20034;-81